createdAt,value
2023-03-16T16:25:39.482Z,99672.70
2023-03-16T16:28:23.386Z,99676.23
2023-03-16T16:30:54.460Z,99677.27
2023-03-16T16:33:29.255Z,99679.41
2023-03-16T16:36:00.783Z,99680.50
2023-03-16T16:38:30.960Z,99685.30
2023-03-16T16:44:34.850Z,99689.59
2023-03-16T16:47:37.491Z,99691.95
2023-03-16T16:50:49.313Z,99691.71
2023-03-16T16:53:23.803Z,99697.02
2023-03-16T16:55:51.787Z,99702.77
2023-03-16T16:58:27.024Z,99704.83
2023-03-16T17:00:58.175Z,99710.91
2023-03-16T17:03:30.083Z,99717.18
2023-03-16T17:05:59.078Z,99715.05
2023-03-16T17:08:28.725Z,99716.95
2023-03-16T17:10:57.355Z,99719.28
2023-03-16T17:13:40.866Z,99721.98
2023-03-16T17:16:16.705Z,99725.42
2023-03-16T17:18:45.943Z,99725.18
2023-03-16T17:21:19.938Z,99726.48
2023-03-16T17:23:49.194Z,99726.98
2023-03-16T17:26:21.043Z,99728.44
2023-03-16T17:29:17.690Z,99730.06
2023-03-16T17:31:46.275Z,99739.94
2023-03-16T17:34:18.455Z,99737.52
2023-03-16T17:36:47.149Z,99737.02
2023-03-16T17:39:19.213Z,99738.84
2023-03-16T17:42:01.800Z,99740.14
2023-03-16T17:44:36.300Z,99742.52
2023-03-16T17:47:12.175Z,99743.23
2023-03-16T17:49:40.476Z,99745.56
2023-03-16T17:52:19.573Z,99750.61
2023-03-16T17:54:49.831Z,99749.19
2023-03-16T17:57:22.309Z,99755.81
2023-03-16T17:59:50.952Z,99764.02
2023-03-16T18:03:04.484Z,99768.62
2023-03-16T18:05:48.744Z,99767.77
2023-03-16T18:08:35.526Z,99766.01
2023-03-16T18:11:08.629Z,99771.33
2023-03-16T18:14:01.209Z,99768.35
2023-03-16T18:20:38.506Z,99776.30
2023-03-16T18:23:48.178Z,99778.09
2023-03-16T18:26:31.574Z,99781.27
2023-03-16T18:29:07.865Z,99785.45
2023-03-16T18:31:42.829Z,99784.33
2023-03-16T18:34:21.694Z,99792.21
2023-03-16T18:36:51.626Z,99793.95
2023-03-16T18:39:27.488Z,99794.73
2023-03-16T18:42:21.073Z,99793.23
2023-03-16T18:44:59.225Z,99796.29
2023-03-16T18:47:33.053Z,99798.30
2023-03-16T18:50:02.451Z,99802.55
2023-03-16T18:52:34.560Z,99802.90
2023-03-16T18:55:28.260Z,99807.52
2023-03-16T18:58:24.196Z,99810.31
2023-03-16T19:01:00.053Z,99808.74
2023-03-16T19:03:46.332Z,99804.94
2023-03-16T19:06:23.993Z,99809.84
2023-03-16T19:15:53.383Z,99825.48
2023-03-16T19:18:37.764Z,99826.67
2023-03-16T19:22:20.533Z,99826.98
2023-03-16T19:28:58.889Z,99835.67
2023-03-16T19:31:41.572Z,99840.41
2023-03-16T19:34:35.488Z,99838.82
2023-03-16T19:37:50.329Z,99844.75
2023-03-16T19:40:39.032Z,99843.35
2023-03-16T19:47:15.447Z,99852.33
2023-03-16T19:56:46.931Z,99854.53
2023-03-16T19:59:22.911Z,99855.52
2023-03-16T20:03:25.520Z,99858.40
2023-03-16T20:05:53.212Z,99856.55
2023-03-16T20:08:32.542Z,99856.05
2023-03-16T20:15:20.140Z,99858.17
2023-03-16T20:18:01.081Z,99859.92
2023-03-16T20:20:56.368Z,99869.88
2023-03-16T20:23:48.785Z,99873.27
2023-03-16T20:29:51.043Z,99874.21
2023-03-16T20:32:33.406Z,99877.35
2023-03-16T20:38:47.014Z,99881.72
2023-03-16T20:45:27.266Z,99888.13
2023-03-16T20:48:23.259Z,99891.00
2023-03-16T20:50:55.130Z,99888.27
2023-03-16T20:53:26.148Z,99887.11
2023-03-16T20:55:57.152Z,99884.15
2023-03-16T20:58:34.889Z,99885.96
2023-03-16T21:01:39.399Z,99891.95
2023-03-16T21:04:42.384Z,99893.77
2023-03-16T21:07:16.081Z,99890.02
2023-03-16T21:09:55.680Z,99892.64
2023-03-16T21:12:49.859Z,99894.55
2023-03-16T21:15:23.433Z,99895.79
2023-03-16T21:18:09.968Z,99895.30
2023-03-16T21:20:50.579Z,99900.58
2023-03-16T21:23:22.985Z,99896.91
2023-03-16T21:26:14.176Z,99894.48
2023-03-16T21:28:59.758Z,99895.73
2023-03-16T21:31:34.270Z,99897.27
2023-03-16T21:34:01.863Z,99897.98
2023-03-16T21:36:31.294Z,99898.90
2023-03-16T21:39:03.878Z,99898.11
2023-03-16T21:41:35.498Z,99897.27
2023-03-16T21:44:23.500Z,99897.11
2023-03-16T21:46:51.673Z,99898.14
2023-03-16T21:49:22.091Z,99896.23
2023-03-16T21:51:54.719Z,99896.95
2023-03-16T21:54:26.357Z,99896.47
2023-03-16T21:57:03.756Z,99896.33
2023-03-16T21:59:58.039Z,99901.91
2023-03-16T22:02:35.454Z,99901.23
2023-03-16T22:05:29.922Z,99901.05
2023-03-16T22:08:30.766Z,99897.61
2023-03-16T22:11:04.334Z,99900.09
2023-03-16T22:13:36.357Z,99894.56
2023-03-16T22:16:36.597Z,99893.39
2023-03-16T22:19:23.259Z,99893.73
2023-03-16T22:21:59.191Z,99898.27
2023-03-16T22:24:50.027Z,99895.84
2023-03-16T22:27:25.933Z,99901.40
2023-03-16T22:29:55.765Z,99903.67
2023-03-16T22:32:31.153Z,99903.77
2023-03-16T22:35:05.150Z,99904.77
2023-03-16T22:37:53.651Z,99907.98
2023-03-16T22:40:40.646Z,99903.64
2023-03-16T22:43:17.361Z,99906.90
2023-03-16T22:46:07.308Z,99907.45
2023-03-16T22:48:42.101Z,99910.96
2023-03-16T22:51:45.187Z,99914.31
2023-03-16T22:54:40.041Z,99913.91
2023-03-16T22:57:16.210Z,99920.22
2023-03-16T22:59:52.735Z,99915.84
2023-03-16T23:02:38.372Z,99913.98
2023-03-16T23:05:39.376Z,99919.18
2023-03-16T23:08:35.181Z,99918.35
2023-03-16T23:11:23.270Z,99922.10
2023-03-16T23:13:56.846Z,99920.66
2023-03-16T23:16:38.611Z,99922.04
2023-03-16T23:19:33.534Z,99921.75
2023-03-16T23:22:40.509Z,99919.75
2023-03-16T23:25:07.832Z,99921.67
2023-03-16T23:30:46.603Z,99918.97
2023-03-16T23:33:21.515Z,99914.10
2023-03-16T23:35:53.132Z,99912.87
2023-03-16T23:38:26.500Z,99913.75
2023-03-16T23:41:00.594Z,99913.05
2023-03-16T23:43:33.641Z,99917.23
2023-03-16T23:46:32.486Z,99914.73
2023-03-16T23:49:12.457Z,99914.65
2023-03-16T23:51:44.867Z,99913.27
2023-03-16T23:54:27.836Z,99915.00
2023-03-16T23:57:00.697Z,99921.10
